Time;durP1;ratioP1;P1;durP2;ratioP2;P2;SDS_P1;SDS_P2;PMS_P1;PMS_P2;Temp;Humidity;BMP_temperature;BMP_pressure;BME280_temperature;BME280_humidity;BME280_pressure;Samples;Min_cycle;Max_cycle;Signal;HPM_P1;HPM_P2
2022/01/03 00:00:47;;;;;;;19.58;11.80;;;2.50;74.00;;;;;;5054336;28;20111;-57
2022/01/03 00:03:14;;;;;;;24.50;12.88;;;2.60;74.00;;;;;;5054054;28;20427;-55
2022/01/03 00:05:40;;;;;;;22.02;13.68;;;2.60;73.70;;;;;;5044922;28;20037;-59
2022/01/03 00:08:06;;;;;;;22.92;11.75;;;2.70;73.50;;;;;;5042480;28;20029;-57
2022/01/03 00:10:34;;;;;;;32.80;17.13;;;2.70;73.40;;;;;;5049998;28;20021;-56
2022/01/03 00:13:01;;;;;;;25.67;14.13;;;2.70;73.40;;;;;;5053864;28;20352;-58
2022/01/03 00:15:28;;;;;;;39.50;20.67;;;2.70;73.40;;;;;;5053917;28;20029;-55
2022/01/03 00:17:54;;;;;;;33.80;18.52;;;2.80;73.50;;;;;;5054149;28;20415;-58
2022/01/03 00:20:21;;;;;;;33.38;20.02;;;2.80;73.30;;;;;;5053569;28;20021;-58
2022/01/03 00:23:00;;;;;;;33.78;19.30;;;2.80;73.20;;;;;;5038686;28;20032;-56
2022/01/03 00:25:26;;;;;;;36.20;19.77;;;2.70;73.30;;;;;;5051021;28;20028;-57
2022/01/03 00:28:07;;;;;;;35.97;19.00;;;2.80;73.40;;;;;;5044920;28;20436;-57
2022/01/03 00:30:39;;;;;;;33.20;18.15;;;2.70;73.60;;;;;;5053688;28;20032;-55
2022/01/03 00:33:06;;;;;;;29.02;16.10;;;2.70;73.60;;;;;;5053556;28;20025;-58
2022/01/03 00:35:36;;;;;;;22.40;12.52;;;2.80;73.70;;;;;;5053384;28;20484;-56
2022/01/03 00:38:02;;;;;;;16.30;9.73;;;2.70;73.70;;;;;;5046353;28;20041;-57
2022/01/03 00:40:28;;;;;;;13.38;8.02;;;2.80;73.70;;;;;;5043468;28;20053;-59
2022/01/03 00:42:54;;;;;;;11.30;6.95;;;2.80;73.80;;;;;;5048776;28;20029;-59
2022/01/03 00:45:20;;;;;;;9.25;6.65;;;2.80;73.80;;;;;;5052404;28;20017;-58
2022/01/03 00:47:47;;;;;;;9.30;6.25;;;2.80;73.70;;;;;;5053310;28;20079;-58
2022/01/03 00:50:16;;;;;;;10.00;6.65;;;2.80;73.70;;;;;;5048530;28;20017;-58
2022/01/03 00:52:42;;;;;;;8.48;5.72;;;2.90;73.80;;;;;;5033329;28;20516;-58
2022/01/03 00:55:08;;;;;;;9.23;6.60;;;2.90;73.80;;;;;;5039079;28;20028;-58
2022/01/03 00:58:02;;;;;;;7.55;4.93;;;2.90;73.80;;;;;;5053077;28;20473;-58
2022/01/03 01:00:32;;;;;;;7.97;5.78;;;2.90;73.80;;;;;;5044372;28;20025;-57
2022/01/03 01:03:04;;;;;;;6.97;5.53;;;2.90;73.90;;;;;;5049813;28;20040;-56
2022/01/03 01:05:30;;;;;;;6.00;4.55;;;3.00;74.00;;;;;;5047241;28;20258;-58
2022/01/03 01:07:57;;;;;;;5.95;4.60;;;3.00;74.00;;;;;;5049620;28;20041;-57
2022/01/03 01:10:28;;;;;;;5.60;4.80;;;3.10;74.00;;;;;;5053280;28;20025;-59
2022/01/03 01:12:54;;;;;;;;;;;3.10;73.90;;;;;;5051874;28;20385;-56
2022/01/03 01:15:20;;;;;;;5.30;4.32;;;3.10;73.90;;;;;;5034468;28;19950;-55
2022/01/03 01:17:47;;;;;;;6.40;4.47;;;3.10;73.90;;;;;;5040570;28;20033;-57
2022/01/03 01:20:15;;;;;;;5.80;4.35;;;3.20;73.80;;;;;;5052977;28;20548;-57
2022/01/03 01:22:45;;;;;;;5.85;4.22;;;3.10;73.70;;;;;;5043386;28;20021;-58
2022/01/03 01:27:47;;;;;;;5.90;4.60;;;3.10;73.90;;;;;;5052803;28;20023;-55
2022/01/03 01:30:14;;;;;;;7.10;4.95;;;3.10;73.90;;;;;;5052709;28;20039;-58
2022/01/03 01:32:46;;;;;;;5.90;4.30;;;3.10;73.90;;;;;;5052606;28;20021;-58
2022/01/03 01:35:13;;;;;;;5.28;4.60;;;3.10;74.00;;;;;;5046988;28;20024;-58
2022/01/03 01:37:42;;;;;;;5.30;4.55;;;3.10;74.00;;;;;;5052611;28;20029;-59
2022/01/03 01:40:08;;;;;;;5.15;4.53;;;3.10;74.10;;;;;;5052658;28;20098;-57
2022/01/03 01:42:36;;;;;;;6.38;4.60;;;3.10;74.30;;;;;;5052448;28;20025;-59
2022/01/03 01:45:08;;;;;;;5.32;4.28;;;3.10;74.40;;;;;;5052642;28;20025;-57
2022/01/03 01:47:39;;;;;;;5.90;4.60;;;3.10;74.50;;;;;;5052793;28;20392;-57
2022/01/03 01:50:07;;;;;;;4.32;3.78;;;3.10;74.70;;;;;;5040182;28;20022;-59
2022/01/03 01:52:35;;;;;;;5.95;3.78;;;3.20;74.80;;;;;;5049072;28;20029;-58
2022/01/03 01:55:05;;;;;;;3.95;3.50;;;3.20;74.90;;;;;;5040308;28;20041;-58
2022/01/03 01:57:59;;;;;;;5.20;3.70;;;3.20;75.00;;;;;;5052648;28;20454;-59
2022/01/03 02:00:26;;;;;;;6.07;4.20;;;3.20;75.10;;;;;;5051950;28;20060;-58
2022/01/03 02:02:54;;;;;;;4.50;3.60;;;3.20;75.20;;;;;;5052525;28;20029;-57
2022/01/03 02:05:31;;;;;;;5.15;3.97;;;3.30;75.50;;;;;;5048087;28;20377;-57
2022/01/03 02:08:15;;;;;;;3.88;3.45;;;3.30;75.50;;;;;;5046884;28;20029;-58
2022/01/03 02:10:44;;;;;;;5.88;4.20;;;3.30;75.70;;;;;;5047095;28;20036;-59
2022/01/03 02:13:14;;;;;;;5.88;4.53;;;3.30;75.90;;;;;;5052409;28;20044;-59
2022/01/03 02:15:45;;;;;;;5.93;4.47;;;3.30;76.10;;;;;;5051174;28;20431;-58
2022/01/03 02:18:11;;;;;;;6.03;4.40;;;3.30;76.30;;;;;;5049102;28;20037;-57
2022/01/03 02:20:37;;;;;;;5.07;4.43;;;3.30;76.60;;;;;;5039759;28;20505;-57
2022/01/03 02:23:03;;;;;;;6.20;4.13;;;3.40;76.90;;;;;;5052083;28;20025;-57
2022/01/03 02:25:29;;;;;;;7.53;5.10;;;3.40;77.10;;;;;;5041116;28;20025;-58
2022/01/03 02:27:55;;;;;;;6.25;5.03;;;3.50;77.30;;;;;;5048381;28;20025;-57
2022/01/03 02:30:24;;;;;;;6.22;5.05;;;3.50;77.50;;;;;;5052195;28;20027;-57
2022/01/03 02:32:50;;;;;;;5.28;4.40;;;3.50;77.60;;;;;;5052270;28;20531;-59
2022/01/03 02:35:16;;;;;;;5.88;4.63;;;3.50;77.80;;;;;;5052398;28;20021;-58
2022/01/03 02:37:44;;;;;;;7.38;5.55;;;3.50;77.80;;;;;;5052358;28;20033;-59
2022/01/03 02:40:11;;;;;;;6.00;4.78;;;3.50;78.00;;;;;;5051953;28;20025;-59
2022/01/03 02:42:38;;;;;;;6.63;5.38;;;3.60;78.20;;;;;;5043164;28;20029;-58
2022/01/03 02:45:10;;;;;;;6.85;5.18;;;3.60;78.50;;;;;;5052486;28;20045;-58
2022/01/03 02:47:37;;;;;;;5.70;4.82;;;3.60;78.70;;;;;;5042285;28;20029;-58
2022/01/03 02:50:04;;;;;;;6.22;5.03;;;3.60;78.70;;;;;;5055817;28;20024;-56
2022/01/03 02:52:30;;;;;;;7.05;6.13;;;3.70;78.90;;;;;;5055723;28;20469;-57
2022/01/03 02:54:56;;;;;;;7.25;5.57;;;3.70;79.10;;;;;;5055759;28;20036;-57
2022/01/03 02:57:23;;;;;;;7.35;5.40;;;3.80;79.30;;;;;;5055564;28;20464;-58
2022/01/03 02:59:58;;;;;;;6.80;5.95;;;3.80;79.40;;;;;;5050926;28;20350;-55
2022/01/03 03:02:26;;;;;;;7.15;5.53;;;3.90;79.60;;;;;;5055186;28;20029;-59
2022/01/03 03:04:59;;;;;;;6.30;5.13;;;3.90;79.50;;;;;;5055046;28;20108;-58
2022/01/03 03:07:28;;;;;;;5.75;4.97;;;3.90;79.50;;;;;;5051028;28;20474;-57
2022/01/03 03:09:55;;;;;;;7.03;6.10;;;4.00;79.70;;;;;;5055153;28;20024;-58
2022/01/03 03:12:22;;;;;;;7.15;6.05;;;4.00;80.30;;;;;;5054944;28;20441;-58
2022/01/03 03:14:48;;;;;;;8.93;6.30;;;4.00;79.80;;;;;;5055156;28;20029;-59
2022/01/03 03:17:14;;;;;;;6.97;5.85;;;4.00;80.00;;;;;;5050060;28;20464;-57
2022/01/03 03:19:56;;;;;;;7.65;5.50;;;4.00;80.10;;;;;;5054944;28;20377;-57
2022/01/03 03:22:23;;;;;;;7.30;5.63;;;4.10;80.30;;;;;;5054562;28;20125;-59
2022/01/03 03:24:50;;;;;;;8.32;5.88;;;4.10;80.40;;;;;;5050797;28;20075;-59
2022/01/03 03:27:16;;;;;;;8.45;5.93;;;4.10;80.30;;;;;;5050079;28;20029;-59
2022/01/03 03:29:44;;;;;;;7.18;5.53;;;4.10;80.40;;;;;;5059053;28;20028;-57
2022/01/03 03:32:10;;;;;;;7.93;6.10;;;4.10;80.40;;;;;;5054440;28;20100;-59
2022/01/03 03:34:36;;;;;;;8.30;6.70;;;4.10;80.50;;;;;;5054308;28;20029;-58
2022/01/03 03:37:02;;;;;;;8.20;6.20;;;4.20;80.60;;;;;;5054733;28;20044;-58
2022/01/03 03:39:28;;;;;;;9.27;7.05;;;4.20;80.70;;;;;;5054539;28;20025;-56
2022/01/03 03:41:53;;;;;;;8.90;6.57;;;4.20;80.50;;;;;;5054509;28;20041;-56
2022/01/03 03:44:19;;;;;;;7.35;5.78;;;4.20;80.50;;;;;;5054420;28;20067;-59
2022/01/03 03:46:44;;;;;;;7.57;5.65;;;4.30;80.50;;;;;;5045603;28;20021;-58
2022/01/03 03:49:10;;;;;;;9.50;7.40;;;4.30;80.50;;;;;;5048022;28;20025;-57
2022/01/03 03:51:38;;;;;;;8.93;6.50;;;4.30;80.40;;;;;;5043126;28;20029;-57
2022/01/03 03:54:04;;;;;;;8.85;6.05;;;4.30;80.40;;;;;;5054271;28;20021;-57
2022/01/03 03:56:30;;;;;;;9.20;6.78;;;4.30;80.70;;;;;;5054265;28;20492;-58
2022/01/03 03:58:56;;;;;;;7.85;5.88;;;4.30;80.80;;;;;;5054129;28;20028;-57
2022/01/03 04:01:22;;;;;;;6.95;6.05;;;4.40;81.00;;;;;;5054126;28;20025;-58
2022/01/03 04:03:47;;;;;;;7.20;5.82;;;4.30;80.90;;;;;;5054137;28;20017;-59
2022/01/03 04:06:13;;;;;;;8.98;6.25;;;4.30;80.90;;;;;;5048276;28;20071;-55
2022/01/03 04:08:39;;;;;;;7.78;5.97;;;4.40;81.00;;;;;;5047768;28;20416;-58
2022/01/03 04:11:04;;;;;;;6.53;5.43;;;4.40;80.80;;;;;;5053882;28;20476;-57
2022/01/03 04:13:30;;;;;;;6.55;5.22;;;4.40;80.90;;;;;;5048133;28;20053;-58
2022/01/03 04:15:56;;;;;;;7.85;5.95;;;4.40;81.00;;;;;;5044377;28;20057;-59
2022/01/03 04:18:21;;;;;;;9.13;6.40;;;4.40;81.20;;;;;;5042282;28;20056;-58
2022/01/03 04:20:47;;;;;;;7.55;6.22;;;4.40;81.30;;;;;;5039943;28;20050;-56
2022/01/03 04:23:13;;;;;;;9.35;6.82;;;4.40;81.40;;;;;;5053686;28;20477;-56
2022/01/03 04:25:38;;;;;;;8.00;6.63;;;4.40;81.50;;;;;;5049219;28;20028;-58
2022/01/03 04:28:04;;;;;;;8.48;6.15;;;4.40;81.50;;;;;;5053644;28;20078;-59
2022/01/03 04:30:30;;;;;;;8.93;6.22;;;4.40;81.60;;;;;;5038682;28;20078;-58
2022/01/03 04:32:56;;;;;;;8.55;6.40;;;4.50;82.40;;;;;;5041074;28;20120;-56
2022/01/03 04:35:22;;;;;;;8.68;6.22;;;4.40;81.80;;;;;;5053587;28;20358;-58
2022/01/03 04:37:47;;;;;;;8.82;6.75;;;4.40;82.00;;;;;;5040456;28;20040;-59
2022/01/03 04:40:13;;;;;;;7.72;6.25;;;4.40;81.90;;;;;;5053523;28;20083;-58
2022/01/03 04:42:39;;;;;;;9.10;6.32;;;4.40;82.00;;;;;;5052646;28;20029;-59
2022/01/03 04:45:05;;;;;;;8.27;6.63;;;4.50;82.70;;;;;;5053409;28;20049;-57
2022/01/03 04:47:31;;;;;;;9.38;7.25;;;4.50;82.00;;;;;;5039154;28;20444;-59
2022/01/03 04:49:56;;;;;;;8.65;6.90;;;4.50;82.00;;;;;;5041671;28;20109;-58
2022/01/03 04:52:22;;;;;;;7.93;6.32;;;4.50;82.00;;;;;;5051682;28;20372;-57
2022/01/03 04:54:47;;;;;;;9.93;7.38;;;4.50;82.00;;;;;;5047195;28;20093;-57
2022/01/03 04:57:13;;;;;;;8.52;6.97;;;4.50;82.10;;;;;;5049371;28;20031;-58
2022/01/03 04:59:39;;;;;;;8.13;6.78;;;4.50;82.20;;;;;;5052637;28;20033;-57
2022/01/03 05:02:05;;;;;;;7.20;6.40;;;4.50;82.20;;;;;;5052981;28;20025;-57
2022/01/03 05:04:30;;;;;;;7.28;6.20;;;4.50;82.30;;;;;;5053006;28;20021;-59
2022/01/03 05:06:57;;;;;;;9.93;7.15;;;4.60;82.30;;;;;;5051590;28;20071;-56
2022/01/03 05:09:22;;;;;;;7.90;6.25;;;4.60;82.40;;;;;;5051260;28;20107;-57
2022/01/03 05:11:48;;;;;;;7.57;6.50;;;4.60;82.50;;;;;;5052778;28;20138;-59
2022/01/03 05:14:13;;;;;;;7.85;6.72;;;4.60;82.40;;;;;;5053032;28;20465;-58
2022/01/03 05:16:39;;;;;;;8.55;6.72;;;4.60;82.40;;;;;;5040908;28;20033;-58
2022/01/03 05:19:05;;;;;;;7.22;5.95;;;4.60;82.30;;;;;;5047102;28;20365;-58
2022/01/03 05:21:30;;;;;;;8.45;6.75;;;4.60;82.30;;;;;;5052298;28;20055;-58
2022/01/03 05:23:56;;;;;;;8.90;7.03;;;4.60;82.40;;;;;;5052845;28;20028;-55
2022/01/03 05:26:22;;;;;;;8.15;6.55;;;4.60;82.60;;;;;;5040011;28;20029;-55
2022/01/03 05:28:47;;;;;;;7.90;6.40;;;4.60;82.70;;;;;;5052727;28;20044;-56
2022/01/03 05:31:14;;;;;;;8.30;6.40;;;4.70;82.70;;;;;;5052932;28;20036;-58
2022/01/03 05:33:40;;;;;;;7.32;6.30;;;4.60;82.70;;;;;;5045833;28;20017;-58
2022/01/03 05:36:06;;;;;;;8.93;6.82;;;4.60;82.70;;;;;;5040838;28;20417;-58
2022/01/03 05:38:32;;;;;;;8.10;6.20;;;4.60;82.70;;;;;;5044013;28;20048;-58
2022/01/03 05:40:57;;;;;;;8.40;6.60;;;4.60;82.70;;;;;;5062719;28;20559;-55
2022/01/03 05:43:23;;;;;;;10.35;7.63;;;4.70;82.80;;;;;;5032685;28;20115;-58
2022/01/03 05:45:49;;;;;;;9.18;7.10;;;4.60;82.80;;;;;;5032694;28;20025;-58
2022/01/03 05:48:15;;;;;;;8.35;7.15;;;4.70;83.00;;;;;;5038642;28;20030;-58
2022/01/03 05:50:40;;;;;;;7.78;6.63;;;4.70;83.00;;;;;;5039433;28;20057;-58
2022/01/03 05:53:06;;;;;;;10.57;7.80;;;4.70;83.00;;;;;;5052480;28;20058;-57
2022/01/03 05:55:31;;;;;;;9.57;7.65;;;4.70;83.00;;;;;;5050177;28;20025;-58
2022/01/03 05:57:57;;;;;;;7.75;6.40;;;4.70;83.10;;;;;;5049965;28;20095;-58
2022/01/03 06:00:25;;;;;;;8.68;6.80;;;4.70;83.20;;;;;;5032513;28;20026;-57
2022/01/03 06:02:55;;;;;;;7.35;6.28;;;4.70;83.10;;;;;;5032698;28;20034;-56
2022/01/03 06:05:39;;;;;;;7.10;6.00;;;4.70;83.10;;;;;;5050356;28;20017;-54
2022/01/03 06:08:07;;;;;;;8.65;6.68;;;4.70;83.00;;;;;;5046261;28;20378;-57
2022/01/03 06:10:33;;;;;;;10.02;7.10;;;4.70;83.00;;;;;;5052339;28;20021;-54
2022/01/03 06:12:58;;;;;;;8.10;6.85;;;4.70;83.10;;;;;;5052276;28;20029;-58
2022/01/03 06:15:25;;;;;;;9.00;7.15;;;4.70;83.20;;;;;;5052299;28;20078;-53
2022/01/03 06:17:52;;;;;;;8.88;6.97;;;4.80;83.40;;;;;;5038291;28;20033;-57
2022/01/03 06:20:18;;;;;;;9.05;7.40;;;4.80;83.30;;;;;;5052632;28;20055;-58
2022/01/03 06:22:44;;;;;;;10.32;7.25;;;4.80;83.30;;;;;;5052985;28;20078;-57
2022/01/03 06:25:11;;;;;;;11.15;8.48;;;4.80;83.30;;;;;;5044846;28;20028;-57
2022/01/03 06:27:37;;;;;;;8.85;7.22;;;4.80;83.50;;;;;;5056227;28;20422;-57
2022/01/03 06:30:05;;;;;;;10.02;7.22;;;4.80;83.40;;;;;;5064954;28;20021;-58
2022/01/03 06:32:30;;;;;;;9.85;7.55;;;4.80;83.30;;;;;;5044384;28;20021;-58
2022/01/03 06:34:56;;;;;;;8.50;6.65;;;4.80;83.30;;;;;;5035846;28;20481;-57
2022/01/03 06:37:22;;;;;;;10.63;7.63;;;4.80;83.50;;;;;;5044520;28;20095;-54
2022/01/03 06:39:47;;;;;;;12.25;8.68;;;4.80;83.50;;;;;;5046914;28;20053;-58
2022/01/03 06:42:13;;;;;;;9.70;7.05;;;4.90;83.60;;;;;;5046972;28;20067;-57
2022/01/03 06:44:39;;;;;;;9.68;7.35;;;4.90;83.60;;;;;;5055594;28;20029;-55
2022/01/03 06:47:05;;;;;;;7.97;7.07;;;4.90;83.50;;;;;;5044894;28;20036;-58
2022/01/03 06:49:30;;;;;;;8.20;7.30;;;5.00;83.60;;;;;;5041418;28;20036;-58
2022/01/03 06:51:56;;;;;;;8.65;6.90;;;5.00;83.60;;;;;;5055436;28;20100;-57
2022/01/03 06:54:22;;;;;;;8.75;7.13;;;5.00;83.50;;;;;;5055489;28;20036;-55
2022/01/03 06:56:47;;;;;;;8.93;6.53;;;5.10;83.50;;;;;;5052206;28;20033;-55
2022/01/03 06:59:13;;;;;;;9.52;7.15;;;5.10;83.50;;;;;;5053436;28;20033;-57
2022/01/03 07:01:39;;;;;;;10.40;8.05;;;5.10;83.50;;;;;;5055310;28;20031;-58
2022/01/03 07:04:04;;;;;;;9.80;7.63;;;5.20;83.50;;;;;;5055122;28;20503;-58
2022/01/03 07:06:31;;;;;;;9.80;7.28;;;5.20;83.50;;;;;;5055227;28;20435;-57
2022/01/03 07:08:58;;;;;;;8.90;7.15;;;5.30;83.50;;;;;;5055165;28;20060;-58
2022/01/03 07:11:23;;;;;;;9.55;7.10;;;5.30;83.30;;;;;;5055140;28;20024;-58
2022/01/03 07:13:53;;;;;;;8.57;6.90;;;5.40;83.20;;;;;;5053867;28;20033;-56
2022/01/03 07:19:06;;;;;;;10.02;7.18;;;5.50;83.10;;;;;;5047456;28;20049;-57
2022/01/03 07:21:34;;;;;;;9.65;6.70;;;5.50;83.00;;;;;;5054706;28;20087;-57
2022/01/03 07:24:00;;;;;;;10.40;7.13;;;5.50;82.90;;;;;;5054846;28;20099;-58
2022/01/03 07:26:27;;;;;;;8.52;6.30;;;5.50;82.70;;;;;;5055114;28;20021;-57
2022/01/03 07:28:54;;;;;;;9.35;7.35;;;5.60;82.60;;;;;;5054462;28;20088;-57
2022/01/03 07:31:20;;;;;;;9.02;7.22;;;5.60;82.60;;;;;;5037614;28;20028;-59
2022/01/03 07:33:47;;;;;;;9.77;7.07;;;5.60;82.60;;;;;;5047923;28;20128;-58
2022/01/03 07:36:13;;;;;;;9.18;8.10;;;5.60;82.50;;;;;;5055389;28;20469;-57
2022/01/03 07:38:39;;;;;;;11.43;7.47;;;5.60;82.50;;;;;;5050113;28;20029;-54
2022/01/03 07:41:05;;;;;;;9.98;7.55;;;5.60;82.50;;;;;;5044786;28;20113;-58
2022/01/03 07:43:31;;;;;;;9.55;7.82;;;5.60;82.60;;;;;;5054223;28;20037;-58
2022/01/03 07:45:57;;;;;;;10.43;8.15;;;5.60;82.60;;;;;;5042094;28;20025;-57
2022/01/03 07:48:23;;;;;;;11.38;7.32;;;5.70;82.70;;;;;;5044174;28;20124;-59
2022/01/03 07:50:49;;;;;;;8.52;7.07;;;5.60;82.70;;;;;;5052313;28;20532;-57
2022/01/03 07:53:15;;;;;;;9.68;6.90;;;5.70;82.60;;;;;;5055735;28;20075;-58
2022/01/03 07:55:40;;;;;;;10.30;8.30;;;5.70;82.60;;;;;;5058246;28;20512;-57
2022/01/03 07:58:06;;;;;;;8.57;6.82;;;5.70;82.40;;;;;;5069178;28;20024;-58
2022/01/03 08:00:32;;;;;;;10.77;8.25;;;5.70;82.60;;;;;;5060988;28;20033;-58
2022/01/03 08:02:57;;;;;;;9.48;7.57;;;5.70;82.30;;;;;;5057532;28;20032;-56
2022/01/03 08:05:23;;;;;;;9.73;7.97;;;5.80;82.40;;;;;;5047112;28;20028;-58
2022/01/03 08:07:49;;;;;;;10.88;8.40;;;5.80;82.50;;;;;;5060499;28;20020;-58
2022/01/03 08:10:15;;;;;;;9.70;7.85;;;5.80;82.60;;;;;;5070189;28;20024;-58
2022/01/03 08:12:41;;;;;;;12.43;8.52;;;5.90;82.70;;;;;;5054971;28;20639;-58
2022/01/03 08:15:08;;;;;;;12.52;9.40;;;5.90;82.70;;;;;;5052712;28;20040;-58
2022/01/03 08:17:34;;;;;;;11.15;8.20;;;6.00;82.90;;;;;;5056789;28;20013;-58
2022/01/03 08:20:01;;;;;;;8.77;6.50;;;6.10;82.60;;;;;;5061600;28;20020;-58
2022/01/03 08:22:26;;;;;;;9.43;7.30;;;6.20;82.50;;;;;;5033588;28;20034;-58
2022/01/03 08:24:52;;;;;;;9.85;7.32;;;6.20;82.30;;;;;;5037157;28;20072;-58
2022/01/03 08:27:18;;;;;;;9.88;7.40;;;6.30;82.00;;;;;;5035129;28;20473;-58
2022/01/03 08:29:43;;;;;;;10.80;8.15;;;6.30;81.80;;;;;;5042921;28;20096;-58
2022/01/03 08:32:09;;;;;;;11.15;8.43;;;6.30;81.70;;;;;;5038664;28;20030;-58
2022/01/03 08:34:35;;;;;;;10.30;8.18;;;6.30;81.70;;;;;;5035720;28;20540;-58
2022/01/03 08:37:01;;;;;;;11.05;8.73;;;6.30;81.80;;;;;;5043338;28;20068;-55
2022/01/03 08:39:27;;;;;;;10.85;8.35;;;6.30;82.00;;;;;;5035026;28;20029;-59
2022/01/03 08:41:53;;;;;;;11.32;8.57;;;6.30;81.90;;;;;;5039117;28;20049;-54
2022/01/03 08:44:19;;;;;;;11.45;8.35;;;6.30;81.80;;;;;;5033067;28;20037;-57
2022/01/03 08:46:46;;;;;;;9.82;7.88;;;6.40;81.80;;;;;;5042331;28;20017;-59
2022/01/03 08:49:13;;;;;;;10.43;7.93;;;6.40;81.70;;;;;;5021995;28;20396;-58
2022/01/03 08:51:38;;;;;;;9.52;7.78;;;6.40;81.70;;;;;;5023464;28;20099;-58
2022/01/03 08:54:04;;;;;;;9.73;7.35;;;6.40;81.70;;;;;;5027862;28;20093;-58
2022/01/03 08:56:30;;;;;;;10.35;7.65;;;6.40;81.60;;;;;;5030251;28;20033;-58
2022/01/03 08:58:56;;;;;;;10.20;7.32;;;6.50;81.50;;;;;;5031273;28;20024;-58
2022/01/03 09:01:22;;;;;;;9.00;7.43;;;6.50;81.50;;;;;;5025537;28;20026;-56
2022/01/03 09:03:50;;;;;;;10.52;8.00;;;6.50;81.60;;;;;;5031287;28;20321;-58
2022/01/03 09:06:17;;;;;;;10.90;8.30;;;6.50;81.50;;;;;;5031544;28;20428;-58
2022/01/03 09:08:44;;;;;;;8.13;6.75;;;6.50;81.30;;;;;;5031803;28;20026;-58
2022/01/03 09:11:09;;;;;;;9.90;7.63;;;6.60;81.30;;;;;;5031428;28;20021;-58
2022/01/03 09:13:35;;;;;;;10.55;8.43;;;6.60;81.30;;;;;;5027036;28;20079;-57
2022/01/03 09:16:06;;;;;;;11.10;8.38;;;6.60;81.20;;;;;;5032040;28;20488;-58
2022/01/03 09:18:33;;;;;;;11.55;7.97;;;6.60;81.40;;;;;;5029182;28;20083;-55
2022/01/03 09:20:58;;;;;;;10.57;7.97;;;6.60;81.50;;;;;;5040529;28;20049;-57
2022/01/03 09:23:29;;;;;;;9.70;7.25;;;6.60;81.30;;;;;;5052680;28;20025;-57
2022/01/03 09:28:49;;;;;;;12.23;8.68;;;6.60;81.50;;;;;;5048569;28;20023;-58
2022/01/03 09:31:15;;;;;;;10.38;7.82;;;6.60;81.60;;;;;;5050960;28;20496;-57
2022/01/03 09:33:41;;;;;;;11.40;8.18;;;6.60;81.50;;;;;;5052678;28;20042;-58
2022/01/03 09:36:07;;;;;;;10.88;7.85;;;6.60;81.60;;;;;;5051448;28;20389;-58
2022/01/03 09:38:34;;;;;;;9.98;7.70;;;6.70;81.60;;;;;;5052542;28;20100;-58
2022/01/03 09:41:04;;;;;;;14.00;9.35;;;6.70;81.40;;;;;;5052587;28;20029;-57
2022/01/03 09:43:41;;;;;;;12.18;8.65;;;6.80;81.50;;;;;;5052461;28;20036;-58
2022/01/03 09:46:12;;;;;;;10.32;8.25;;;6.80;81.40;;;;;;5052676;28;20018;-58
2022/01/03 09:48:42;;;;;;;11.55;8.00;;;6.90;81.40;;;;;;5042206;28;20476;-58
2022/01/03 09:51:11;;;;;;;11.77;8.27;;;6.90;81.30;;;;;;5052994;28;20020;-57
2022/01/03 09:53:39;;;;;;;10.57;8.02;;;7.00;81.30;;;;;;5044469;28;20030;-58
2022/01/03 09:56:06;;;;;;;11.38;8.75;;;7.00;81.40;;;;;;5041075;28;20034;-57
2022/01/03 09:58:32;;;;;;;9.98;7.50;;;7.10;81.40;;;;;;5041731;28;20576;-58
2022/01/03 10:00:59;;;;;;;10.38;7.68;;;7.10;81.40;;;;;;5056502;28;20103;-57
2022/01/03 10:03:25;;;;;;;9.23;7.30;;;7.20;81.40;;;;;;5055626;28;20029;-59
2022/01/03 10:05:51;;;;;;;10.15;7.57;;;7.20;81.40;;;;;;5045756;28;20504;-55
2022/01/03 10:08:16;;;;;;;8.48;7.25;;;7.30;81.40;;;;;;5056219;28;20029;-55
2022/01/03 10:10:45;;;;;;;9.68;7.75;;;7.30;81.40;;;;;;5056355;28;20044;-57
2022/01/03 10:13:14;;;;;;;10.80;8.15;;;7.40;81.20;;;;;;5056299;28;20529;-58
2022/01/03 10:15:40;;;;;;;11.73;8.55;;;7.40;81.20;;;;;;5056155;28;20036;-58
2022/01/03 10:18:06;;;;;;;11.02;8.07;;;7.50;81.10;;;;;;5053253;28;20393;-58
2022/01/03 10:20:39;;;;;;;11.20;7.45;;;7.50;81.20;;;;;;5048745;28;20049;-58
2022/01/03 10:23:14;;;;;;;8.95;6.95;;;7.60;81.10;;;;;;5051231;28;20086;-58
2022/01/03 10:25:41;;;;;;;9.15;7.57;;;7.60;81.00;;;;;;5046768;28;20072;-58
2022/01/03 10:28:06;;;;;;;11.00;8.20;;;7.60;80.90;;;;;;5047130;28;20020;-58
2022/01/03 10:30:42;;;;;;;11.25;7.80;;;7.70;81.00;;;;;;5056177;28;20032;-58
2022/01/03 10:33:10;;;;;;;10.88;6.93;;;7.70;80.80;;;;;;5050463;28;20025;-58
2022/01/03 10:35:41;;;;;;;8.80;6.88;;;7.80;80.70;;;;;;5046854;28;20033;-56
2022/01/03 10:38:09;;;;;;;;;;;7.80;80.60;;;;;;5045981;28;20084;-57
2022/01/03 10:40:35;;;;;;;8.90;6.47;;;7.80;81.30;;;;;;5041702;28;20004;-58
2022/01/03 10:43:19;;;;;;;11.10;8.13;;;7.80;80.60;;;;;;5036071;28;20199;-56
2022/01/03 10:45:46;;;;;;;10.20;7.07;;;7.90;80.50;;;;;;5045307;28;20163;-58
2022/01/03 10:48:33;;;;;;;9.43;6.93;;;7.90;80.50;;;;;;5043785;28;20459;-55
2022/01/03 10:51:00;;;;;;;10.35;6.68;;;7.90;80.30;;;;;;5032009;28;20079;-58
2022/01/03 10:53:33;;;;;;;10.40;7.38;;;7.90;80.30;;;;;;5041232;28;20037;-56
2022/01/03 10:55:59;;;;;;;9.07;7.00;;;8.00;80.40;;;;;;5043924;28;20044;-54
2022/01/03 10:58:34;;;;;;;10.10;7.60;;;8.00;80.80;;;;;;5041465;28;20029;-57
2022/01/03 11:01:00;;;;;;;8.98;7.20;;;8.00;80.40;;;;;;5040144;28;20036;-57
2022/01/03 11:03:33;;;;;;;8.70;7.10;;;8.10;80.40;;;;;;5043183;28;20029;-58
2022/01/03 11:06:22;;;;;;;10.55;7.35;;;8.10;80.30;;;;;;5037238;28;20060;-58
2022/01/03 11:11:44;;;;;;;9.98;7.47;;;8.20;80.40;;;;;;5050905;28;20075;-58
2022/01/03 11:14:28;;;;;;;9.23;7.65;;;8.20;80.30;;;;;;5037247;28;20465;-58
2022/01/03 11:16:54;;;;;;;11.00;8.10;;;8.20;80.30;;;;;;5035997;28;20025;-55
2022/01/03 11:19:39;;;;;;;9.82;8.10;;;8.30;80.30;;;;;;5044555;28;20053;-57
2022/01/03 11:22:06;;;;;;;10.88;8.07;;;8.30;80.20;;;;;;5039286;28;20128;-58
2022/01/03 11:24:31;;;;;;;12.10;7.78;;;8.30;80.20;;;;;;5037306;28;20489;-57
2022/01/03 11:26:58;;;;;;;12.80;9.32;;;8.30;80.20;;;;;;5035851;28;20065;-58
2022/01/03 11:29:28;;;;;;;10.70;7.93;;;8.30;80.40;;;;;;5038043;28;20030;-56
2022/01/03 11:31:54;;;;;;;9.50;6.68;;;8.30;80.40;;;;;;5034340;28;20675;-57
2022/01/03 11:34:25;;;;;;;11.63;7.45;;;8.40;80.40;;;;;;5038020;28;20546;-54
2022/01/03 11:36:51;;;;;;;;;;;8.40;80.50;;;;;;5046036;28;20086;-56
2022/01/03 11:39:20;;;;;;;12.65;7.40;;;8.40;80.70;;;;;;5050480;28;19905;-55
2022/01/03 11:41:46;;;;;;;11.57;7.65;;;8.50;80.60;;;;;;5050415;28;20108;-57
2022/01/03 11:44:15;;;;;;;9.60;6.97;;;8.60;80.40;;;;;;5052646;28;20059;-57
2022/01/03 11:46:45;;;;;;;9.38;6.88;;;8.60;80.20;;;;;;5043395;28;20022;-54
2022/01/03 11:49:12;;;;;;;10.95;7.00;;;8.70;80.10;;;;;;5052550;28;20025;-57
2022/01/03 11:51:38;;;;;;;8.73;6.30;;;8.80;80.00;;;;;;5052410;28;20023;-57
2022/01/03 11:54:06;;;;;;;10.27;7.10;;;8.80;79.70;;;;;;5054077;28;20507;-57
2022/01/03 11:56:36;;;;;;;9.02;6.63;;;8.90;79.70;;;;;;5054172;28;20021;-55
2022/01/03 11:59:23;;;;;;;9.45;7.10;;;8.90;79.50;;;;;;5054463;28;20021;-57
2022/01/03 12:04:39;;;;;;;9.93;7.25;;;9.00;79.10;;;;;;5052367;28;20025;-58
2022/01/03 12:07:10;;;;;;;9.35;7.13;;;9.10;79.30;;;;;;5054409;28;20028;-58
2022/01/03 12:09:38;;;;;;;9.63;6.25;;;9.10;79.10;;;;;;5038788;28;20061;-57
2022/01/03 12:12:06;;;;;;;11.07;6.97;;;9.10;79.00;;;;;;5053808;28;20043;-57
2022/01/03 12:14:44;;;;;;;9.65;7.50;;;9.20;79.00;;;;;;5054256;28;20074;-58
2022/01/03 12:17:15;;;;;;;10.48;7.68;;;9.20;78.80;;;;;;5053827;28;20036;-58
2022/01/03 12:19:46;;;;;;;9.88;7.18;;;9.20;78.80;;;;;;5042820;28;20041;-55
2022/01/03 12:22:17;;;;;;;10.75;7.10;;;9.20;78.70;;;;;;5037780;28;20524;-55
2022/01/03 12:25:03;;;;;;;11.85;7.65;;;9.30;78.80;;;;;;5039852;28;20055;-58
2022/01/03 12:27:35;;;;;;;10.45;7.32;;;9.30;78.80;;;;;;5049017;28;20029;-57
2022/01/03 12:30:01;;;;;;;8.85;6.20;;;9.30;78.80;;;;;;5053804;28;20423;-58
2022/01/03 12:32:38;;;;;;;8.80;6.82;;;9.30;78.60;;;;;;5053756;28;20035;-54
2022/01/03 12:35:16;;;;;;;11.77;7.07;;;9.40;78.80;;;;;;5053539;28;20028;-57
2022/01/03 12:38:08;;;;;;;7.72;5.10;;;9.40;78.40;;;;;;5047036;28;20021;-57
2022/01/03 12:40:45;;;;;;;7.72;6.28;;;9.40;78.60;;;;;;5053328;28;20124;-59
2022/01/03 12:43:13;;;;;;;8.13;5.88;;;9.40;78.80;;;;;;5041222;28;20040;-57
2022/01/03 12:45:44;;;;;;;8.25;6.20;;;9.40;78.50;;;;;;5053370;28;20024;-57
2022/01/03 12:48:10;;;;;;;9.32;6.45;;;9.40;78.50;;;;;;5053285;28;20021;-58
2022/01/03 12:50:46;;;;;;;8.60;6.32;;;9.40;78.60;;;;;;5053119;28;20108;-58
2022/01/03 12:53:26;;;;;;;8.77;6.72;;;9.50;78.40;;;;;;5053630;28;20100;-57
2022/01/03 12:55:56;;;;;;;8.95;6.50;;;9.50;78.40;;;;;;5048947;28;20028;-55
2022/01/03 12:58:22;;;;;;;7.95;5.47;;;9.50;78.50;;;;;;5053076;28;20029;-57
2022/01/03 13:01:10;;;;;;;8.85;5.78;;;9.50;78.30;;;;;;5052978;28;20396;-56
2022/01/03 13:03:39;;;;;;;10.02;7.03;;;9.50;78.20;;;;;;5052913;28;20064;-59
2022/01/03 13:06:20;;;;;;;10.82;6.85;;;9.50;78.20;;;;;;5051704;28;20025;-55
2022/01/03 13:08:55;;;;;;;8.50;6.30;;;9.50;78.20;;;;;;5053376;28;20056;-54
2022/01/03 13:11:34;;;;;;;8.65;6.22;;;9.50;78.10;;;;;;5047335;28;20029;-57
2022/01/03 13:14:07;;;;;;;7.82;6.22;;;9.50;78.00;;;;;;5042653;28;20373;-59